createdAt,value
2022-10-01T00:01:15.565Z,1.93
2022-10-01T00:03:44.403Z,1.57
2022-10-01T00:06:19.084Z,1.33
2022-10-01T00:08:50.326Z,1.40
2022-10-01T00:11:25.830Z,1.80
2022-10-01T00:13:54.771Z,1.50
2022-10-01T00:16:27.029Z,2.30
2022-10-01T00:18:55.436Z,1.40
2022-10-01T00:21:30.132Z,1.43
2022-10-01T00:24:04.188Z,1.43
2022-10-01T00:26:35.857Z,1.43
2022-10-01T00:29:07.558Z,1.50
2022-10-01T00:31:35.225Z,1.27
2022-10-01T00:34:03.728Z,1.43
2022-10-01T00:36:32.698Z,1.43
2022-10-01T00:39:00.058Z,1.87
2022-10-01T00:41:33.794Z,2.10
2022-10-01T00:44:24.454Z,1.57
2022-10-01T00:46:55.790Z,1.67
2022-10-01T00:49:31.969Z,1.70
2022-10-01T00:52:08.283Z,2.00
2022-10-01T00:54:48.754Z,1.93
2022-10-01T00:57:20.833Z,1.97
2022-10-01T00:59:50.396Z,2.00
2022-10-01T01:02:17.591Z,1.77
2022-10-01T01:04:45.413Z,1.80
2022-10-01T01:07:13.176Z,2.00
2022-10-01T01:09:50.986Z,2.70
2022-10-01T01:12:50.302Z,4.53
2022-10-01T01:15:46.635Z,5.90
2022-10-01T01:18:28.386Z,6.40
2022-10-01T01:21:22.127Z,6.60
2022-10-01T01:24:12.230Z,5.43
2022-10-01T01:27:02.749Z,5.00
2022-10-01T01:29:53.910Z,4.10
2022-10-01T01:32:40.274Z,3.97
2022-10-01T01:35:12.702Z,3.13
2022-10-01T01:37:48.657Z,4.07
2022-10-01T01:40:19.476Z,4.20
2022-10-01T01:42:49.174Z,5.10
2022-10-01T01:45:24.866Z,5.03
2022-10-01T01:47:56.016Z,4.30
2022-10-01T01:50:25.551Z,3.90
2022-10-01T01:52:53.294Z,2.90
2022-10-01T01:55:24.628Z,2.93
2022-10-01T01:57:52.187Z,2.40
2022-10-01T02:00:19.463Z,2.30
2022-10-01T02:02:54.176Z,2.00
2022-10-01T02:05:28.898Z,1.60
2022-10-01T02:08:23.636Z,2.07
2022-10-01T02:11:23.255Z,2.40
2022-10-01T02:14:35.333Z,2.13
2022-10-01T02:17:40.267Z,1.93
2022-10-01T02:20:48.601Z,2.17
2022-10-01T02:23:29.403Z,1.60
2022-10-01T02:26:04.633Z,1.73
2022-10-01T02:28:37.529Z,2.13
2022-10-01T02:31:05.518Z,2.70
2022-10-01T02:33:36.026Z,2.73
2022-10-01T02:36:08.309Z,2.73
2022-10-01T02:38:40.787Z,3.00
2022-10-01T02:41:11.992Z,2.77
2022-10-01T02:44:05.840Z,3.23
2022-10-01T02:47:12.550Z,2.10
2022-10-01T02:49:40.640Z,2.43
2022-10-01T02:52:46.056Z,2.20
2022-10-01T02:55:20.384Z,1.87
2022-10-01T02:57:47.565Z,2.10
2022-10-01T03:00:18.844Z,2.10
2022-10-01T03:02:46.135Z,1.70
2022-10-01T03:05:14.115Z,1.50
2022-10-01T03:07:41.961Z,1.30
2022-10-01T03:10:11.553Z,1.40
2022-10-01T03:12:39.456Z,1.13
2022-10-01T03:15:07.392Z,1.50
2022-10-01T03:17:34.652Z,1.43
2022-10-01T03:20:02.201Z,1.27
2022-10-01T03:22:29.362Z,1.10
2022-10-01T03:24:56.559Z,1.07
2022-10-01T03:27:23.947Z,0.90
2022-10-01T03:29:51.583Z,1.23
2022-10-01T03:32:19.617Z,1.30
2022-10-01T03:34:47.850Z,1.20
2022-10-01T03:37:15.129Z,0.90
2022-10-01T03:39:44.155Z,1.10
2022-10-01T03:42:13.718Z,1.00
2022-10-01T03:44:40.882Z,1.00
2022-10-01T03:47:08.369Z,0.90
2022-10-01T03:49:35.903Z,0.90
2022-10-01T03:52:05.483Z,1.30
2022-10-01T03:54:33.325Z,1.20
2022-10-01T03:57:00.721Z,1.07
2022-10-01T03:59:27.931Z,0.90
2022-10-01T04:01:55.659Z,0.97
2022-10-01T04:04:22.926Z,0.90
2022-10-01T04:06:50.073Z,0.90
2022-10-01T04:09:17.340Z,0.90
2022-10-01T04:11:44.524Z,1.30
2022-10-01T04:14:11.705Z,1.30
2022-10-01T04:16:38.895Z,2.33
2022-10-01T04:19:06.226Z,3.10
2022-10-01T04:21:33.712Z,2.03
2022-10-01T04:24:01.402Z,5.40
2022-10-01T04:26:28.546Z,12.77
2022-10-01T04:28:55.726Z,8.23
2022-10-01T04:31:22.968Z,5.53
2022-10-01T04:33:51.786Z,4.00
2022-10-01T04:36:18.971Z,3.20
2022-10-01T04:38:46.535Z,3.13
2022-10-01T04:41:13.914Z,3.30
2022-10-01T04:43:41.432Z,4.70
2022-10-01T04:46:08.738Z,6.17
2022-10-01T04:48:36.104Z,9.73
2022-10-01T04:51:03.328Z,10.53
2022-10-01T04:53:30.557Z,13.47
2022-10-01T04:55:57.743Z,17.30
2022-10-01T04:58:25.141Z,14.57
2022-10-01T05:00:52.457Z,14.70
2022-10-01T05:03:19.695Z,9.60
2022-10-01T05:05:46.895Z,8.57
2022-10-01T05:08:14.149Z,7.03
2022-10-01T05:10:41.344Z,7.90
2022-10-01T05:13:08.554Z,8.10
2022-10-01T05:15:35.766Z,7.30
2022-10-01T05:18:03.000Z,6.73
2022-10-01T05:20:30.277Z,6.83
2022-10-01T05:22:57.437Z,4.50
2022-10-01T05:25:24.675Z,3.83
2022-10-01T05:27:51.974Z,4.37
2022-10-01T05:30:19.336Z,5.20
2022-10-01T05:32:56.019Z,5.10
2022-10-01T05:35:23.917Z,4.10
2022-10-01T05:38:01.867Z,4.00
2022-10-01T05:40:31.064Z,5.37
2022-10-01T05:43:00.285Z,10.87
2022-10-01T05:45:30.615Z,9.43
2022-10-01T05:48:06.697Z,8.10
2022-10-01T05:50:38.393Z,7.50
2022-10-01T05:53:07.538Z,8.00
2022-10-01T05:55:35.013Z,5.20
2022-10-01T05:58:08.958Z,3.27
2022-10-01T06:00:37.554Z,2.90
2022-10-01T06:03:06.325Z,2.97
2022-10-01T06:05:36.264Z,4.53
2022-10-01T06:08:06.750Z,4.60
2022-10-01T06:10:33.986Z,23.33
2022-10-01T06:13:02.474Z,13.60
2022-10-01T06:15:31.818Z,33.67
2022-10-01T06:18:06.346Z,8.10
2022-10-01T06:20:34.378Z,4.80
2022-10-01T06:23:01.833Z,3.47
2022-10-01T06:25:29.341Z,3.10
2022-10-01T06:27:59.665Z,4.77
2022-10-01T06:30:29.853Z,6.40
2022-10-01T06:33:08.244Z,8.47
2022-10-01T06:35:41.312Z,7.33
2022-10-01T06:38:08.787Z,5.60
2022-10-01T06:40:36.934Z,4.63
2022-10-01T06:43:04.878Z,3.40
2022-10-01T06:45:32.238Z,2.60
2022-10-01T06:48:01.498Z,2.10
2022-10-01T06:50:30.508Z,2.03
2022-10-01T06:52:58.874Z,1.70
2022-10-01T06:55:30.400Z,1.90
2022-10-01T06:58:02.924Z,1.50
2022-10-01T07:00:35.297Z,1.50
2022-10-01T07:03:06.011Z,3.17
2022-10-01T07:05:33.284Z,2.80
2022-10-01T07:08:00.773Z,1.90
2022-10-01T07:10:28.390Z,1.57
2022-10-01T07:12:55.638Z,3.10
2022-10-01T07:15:23.433Z,3.53
2022-10-01T07:17:52.864Z,3.30
2022-10-01T07:20:21.659Z,3.53
2022-10-01T07:22:50.098Z,5.40
2022-10-01T07:25:17.741Z,5.23
2022-10-01T07:27:44.921Z,5.43
2022-10-01T07:30:12.338Z,4.40
2022-10-01T07:32:39.555Z,3.57
2022-10-01T07:35:07.142Z,4.87
2022-10-01T07:37:34.424Z,5.27
2022-10-01T07:40:05.378Z,2.87
2022-10-01T07:42:35.679Z,2.40
2022-10-01T07:45:02.838Z,1.70
2022-10-01T07:47:30.190Z,1.80
2022-10-01T07:49:57.465Z,1.70
2022-10-01T07:52:24.738Z,1.70
2022-10-01T07:54:51.961Z,1.77
2022-10-01T07:57:19.163Z,2.23
2022-10-01T07:59:46.292Z,2.30
2022-10-01T08:02:17.755Z,2.30
2022-10-01T08:04:45.080Z,1.53
2022-10-01T08:07:12.164Z,2.87
2022-10-01T08:09:39.387Z,2.50
2022-10-01T08:12:06.652Z,1.60
2022-10-01T08:14:33.784Z,1.80
2022-10-01T08:17:01.124Z,1.50
2022-10-01T08:19:28.242Z,2.00
2022-10-01T08:21:55.411Z,1.90
2022-10-01T08:24:22.618Z,2.67
2022-10-01T08:26:54.690Z,1.90
2022-10-01T08:29:22.534Z,1.43
2022-10-01T08:31:49.807Z,1.50
2022-10-01T08:34:17.100Z,1.53
2022-10-01T08:36:44.678Z,1.80
2022-10-01T08:39:14.464Z,13.27
2022-10-01T08:42:06.683Z,7.47
2022-10-01T08:44:42.510Z,2.90
2022-10-01T08:47:39.427Z,1.40
2022-10-01T08:50:44.580Z,2.10
2022-10-01T08:53:28.962Z,1.73
2022-10-01T08:55:58.132Z,1.50
2022-10-01T08:58:41.042Z,1.30
2022-10-01T09:01:11.956Z,1.33
2022-10-01T09:03:40.152Z,2.30
2022-10-01T09:06:20.923Z,1.33
2022-10-01T09:09:13.926Z,1.60
2022-10-01T09:12:08.121Z,2.30
2022-10-01T09:14:46.782Z,1.73
2022-10-01T09:18:02.467Z,3.60
2022-10-01T09:20:58.284Z,1.50
2022-10-01T09:23:31.910Z,1.30
2022-10-01T09:26:00.344Z,1.40
2022-10-01T09:28:35.948Z,1.20
2022-10-01T09:31:43.352Z,1.37
2022-10-01T09:34:39.246Z,2.37
2022-10-01T09:37:30.362Z,1.67
2022-10-01T09:40:05.879Z,2.63
2022-10-01T09:42:33.575Z,3.73
2022-10-01T09:45:01.749Z,2.10
2022-10-01T09:47:32.514Z,1.60
2022-10-01T09:50:04.795Z,1.50
2022-10-01T09:52:41.359Z,2.10
2022-10-01T09:55:40.630Z,1.90
2022-10-01T09:58:18.579Z,2.03
2022-10-01T10:00:46.236Z,1.60
2022-10-01T10:03:24.690Z,1.90
2022-10-01T10:05:53.013Z,1.70
2022-10-01T10:08:38.826Z,1.43
2022-10-01T10:11:10.768Z,1.33
2022-10-01T10:13:48.942Z,1.87
2022-10-01T10:16:25.399Z,1.13
2022-10-01T10:18:58.653Z,1.13
2022-10-01T10:21:31.437Z,1.50
2022-10-01T10:24:06.109Z,1.27
2022-10-01T10:26:40.444Z,1.27
2022-10-01T10:29:26.320Z,1.83
2022-10-01T10:31:55.081Z,1.30
2022-10-01T10:34:42.472Z,1.10
2022-10-01T10:37:31.733Z,1.67
2022-10-01T10:39:59.162Z,1.10
2022-10-01T10:42:26.590Z,2.43
2022-10-01T10:45:01.027Z,1.47
2022-10-01T10:47:28.471Z,1.10
2022-10-01T10:50:02.136Z,1.50
2022-10-01T10:52:37.812Z,1.10
2022-10-01T10:55:27.646Z,6.37
2022-10-01T10:57:57.779Z,2.07
2022-10-01T11:00:26.565Z,3.60
2022-10-01T11:03:03.816Z,2.83
2022-10-01T11:05:40.032Z,1.40
2022-10-01T11:08:19.151Z,1.07
2022-10-01T11:11:16.617Z,0.80
2022-10-01T11:14:29.588Z,0.90
2022-10-01T11:17:24.741Z,1.37
2022-10-01T11:20:48.544Z,0.90
2022-10-01T11:23:55.085Z,1.00
2022-10-01T11:26:58.501Z,0.80
2022-10-01T11:29:44.323Z,0.90
2022-10-01T11:32:50.129Z,1.00
2022-10-01T11:35:52.786Z,0.90
2022-10-01T11:38:31.839Z,1.10
2022-10-01T11:41:16.693Z,1.00
2022-10-01T11:44:26.261Z,0.80
2022-10-01T11:46:59.283Z,0.70
2022-10-01T11:49:58.915Z,0.80
2022-10-01T11:52:59.311Z,0.97
2022-10-01T11:55:36.302Z,0.80
2022-10-01T11:58:22.187Z,0.70
2022-10-01T12:01:16.630Z,0.77
2022-10-01T12:03:52.755Z,1.10
2022-10-01T12:06:52.865Z,1.07
2022-10-01T12:09:55.029Z,1.00
2022-10-01T12:12:31.236Z,1.10
2022-10-01T12:15:12.419Z,1.00
2022-10-01T12:18:11.825Z,0.80
2022-10-01T12:20:52.552Z,0.90
2022-10-01T12:23:34.786Z,1.00
2022-10-01T12:26:51.012Z,1.10
2022-10-01T12:30:10.986Z,0.97
2022-10-01T12:33:08.756Z,0.90
2022-10-01T12:36:18.802Z,1.00
2022-10-01T12:39:10.404Z,0.80
2022-10-01T12:42:45.840Z,0.90
2022-10-01T12:45:33.911Z,0.90
2022-10-01T12:48:14.914Z,0.90
2022-10-01T12:51:18.636Z,1.00
2022-10-01T12:54:25.402Z,1.13
2022-10-01T12:57:21.070Z,1.10
2022-10-01T13:00:11.676Z,1.50
2022-10-01T13:03:17.298Z,2.00
2022-10-01T13:06:19.165Z,2.03
2022-10-01T13:09:30.022Z,1.30
2022-10-01T13:12:45.678Z,0.90
2022-10-01T13:15:24.739Z,1.20
2022-10-01T13:18:59.269Z,1.13
2022-10-01T13:21:46.633Z,1.50
2022-10-01T13:24:42.639Z,1.77
2022-10-01T13:27:29.372Z,1.40
2022-10-01T13:30:13.929Z,1.07
2022-10-01T13:32:55.098Z,0.90
2022-10-01T13:35:40.445Z,1.10
2022-10-01T13:38:26.653Z,1.50
2022-10-01T13:41:04.085Z,0.90
2022-10-01T13:43:34.542Z,1.00
2022-10-01T13:46:12.098Z,0.97
2022-10-01T13:48:48.578Z,0.80
2022-10-01T13:51:16.353Z,0.80
2022-10-01T13:53:43.531Z,0.70
2022-10-01T13:56:25.880Z,0.70
2022-10-01T13:58:54.920Z,0.80
2022-10-01T14:01:24.206Z,0.70
2022-10-01T14:04:21.608Z,0.90
2022-10-01T14:07:11.613Z,0.70
2022-10-01T14:09:48.675Z,0.80
2022-10-01T14:12:27.547Z,0.80
2022-10-01T14:15:18.321Z,1.03
2022-10-01T14:17:53.027Z,1.40
2022-10-01T14:20:35.865Z,0.93
2022-10-01T14:23:19.318Z,1.20
2022-10-01T14:26:38.993Z,1.00
2022-10-01T14:29:47.400Z,1.50
2022-10-01T14:32:54.521Z,1.70
2022-10-01T14:35:38.563Z,4.67
2022-10-01T14:38:15.557Z,7.00
2022-10-01T14:40:46.543Z,16.17
2022-10-01T14:43:39.770Z,9.90
2022-10-01T14:46:15.994Z,7.57
2022-10-01T14:48:43.944Z,5.17
2022-10-01T14:51:30.280Z,3.00
2022-10-01T14:54:00.324Z,1.00
2022-10-01T14:56:29.137Z,0.73
2022-10-01T14:59:03.598Z,1.00
2022-10-01T15:01:31.177Z,1.10
2022-10-01T15:03:58.526Z,1.00
2022-10-01T15:06:28.410Z,1.07
2022-10-01T15:09:10.877Z,1.20
2022-10-01T15:11:44.622Z,0.97
2022-10-01T15:14:20.525Z,0.80
2022-10-01T15:16:49.462Z,0.80
2022-10-01T15:19:21.812Z,0.90
2022-10-01T15:22:02.393Z,1.00
2022-10-01T15:25:02.607Z,0.90
2022-10-01T15:27:30.576Z,0.90
2022-10-01T15:29:59.518Z,0.90
2022-10-01T15:32:28.359Z,0.97
2022-10-01T15:35:00.893Z,1.30
2022-10-01T15:37:36.485Z,1.20
2022-10-01T15:40:21.864Z,1.00
2022-10-01T15:43:22.508Z,1.17
2022-10-01T15:46:15.982Z,1.10
2022-10-01T15:48:44.266Z,1.03
2022-10-01T15:51:27.574Z,0.97
2022-10-01T15:54:08.128Z,1.00
2022-10-01T15:56:35.981Z,1.10
2022-10-01T15:59:18.771Z,0.97
2022-10-01T16:01:46.203Z,0.97
2022-10-01T16:04:15.293Z,1.10
2022-10-01T16:06:51.644Z,1.10
2022-10-01T16:09:24.477Z,0.90
2022-10-01T16:11:54.680Z,1.00
2022-10-01T16:14:36.115Z,0.97
2022-10-01T16:17:18.469Z,1.17
2022-10-01T16:19:57.620Z,1.17
2022-10-01T16:22:35.494Z,5.70
2022-10-01T16:25:18.933Z,1.30
2022-10-01T16:28:01.988Z,0.97
2022-10-01T16:30:32.332Z,1.40
2022-10-01T16:33:03.606Z,1.33
2022-10-01T16:35:33.463Z,1.30
2022-10-01T16:38:00.601Z,1.10
2022-10-01T16:40:32.766Z,1.03
2022-10-01T16:43:00.922Z,1.37
2022-10-01T16:45:36.889Z,2.13
2022-10-01T16:48:14.324Z,1.10
2022-10-01T16:50:43.819Z,1.13
2022-10-01T16:53:14.170Z,1.10
2022-10-01T16:55:43.620Z,1.30
2022-10-01T16:58:12.579Z,1.03
2022-10-01T17:00:40.220Z,1.30
2022-10-01T17:03:14.092Z,1.17
2022-10-01T17:05:41.888Z,1.03
2022-10-01T17:08:09.758Z,1.30
2022-10-01T17:10:43.459Z,1.40
2022-10-01T17:13:12.792Z,1.60
2022-10-01T17:15:41.900Z,1.20
2022-10-01T17:18:09.529Z,1.20
2022-10-01T17:20:37.401Z,1.40
2022-10-01T17:23:05.473Z,1.33
2022-10-01T17:25:36.658Z,1.50
2022-10-01T17:28:08.207Z,2.43
2022-10-01T17:30:39.583Z,7.10
2022-10-01T17:33:08.128Z,5.50
2022-10-01T17:35:35.350Z,4.20
2022-10-01T17:38:03.176Z,2.23
2022-10-01T17:40:30.372Z,1.80
2022-10-01T17:42:57.564Z,1.60
2022-10-01T17:45:24.971Z,1.60
2022-10-01T17:47:52.156Z,1.80
2022-10-01T17:50:19.467Z,1.30
2022-10-01T17:52:49.824Z,1.30
2022-10-01T17:55:17.617Z,1.50
2022-10-01T17:57:44.818Z,1.50
2022-10-01T18:00:12.872Z,1.50
2022-10-01T18:02:42.845Z,1.60
2022-10-01T18:05:12.583Z,1.90
2022-10-01T18:07:41.023Z,2.63
2022-10-01T18:10:12.369Z,2.40
2022-10-01T18:12:40.205Z,2.00
2022-10-01T18:15:08.714Z,1.20
2022-10-01T18:17:42.973Z,1.70
2022-10-01T18:20:10.835Z,2.10
2022-10-01T18:22:38.352Z,2.30
2022-10-01T18:25:06.278Z,2.07
2022-10-01T18:27:33.379Z,2.23
2022-10-01T18:30:00.599Z,2.13
2022-10-01T18:32:37.176Z,2.33
2022-10-01T18:35:27.902Z,2.07
2022-10-01T18:38:01.581Z,2.27
2022-10-01T18:40:34.649Z,2.20
2022-10-01T18:43:22.216Z,1.90
2022-10-01T18:45:57.838Z,1.73
2022-10-01T18:49:07.985Z,1.63
2022-10-01T18:52:35.158Z,1.23
2022-10-01T18:55:48.715Z,1.70
2022-10-01T18:59:08.499Z,2.20
2022-10-01T19:02:17.356Z,2.30
2022-10-01T19:05:38.054Z,1.70
2022-10-01T19:08:25.394Z,1.70
2022-10-01T19:11:18.117Z,1.93
2022-10-01T19:14:35.090Z,2.23
2022-10-01T19:17:32.289Z,1.80
2022-10-01T19:20:46.404Z,1.67
2022-10-01T19:23:40.634Z,1.50
2022-10-01T19:26:52.097Z,1.80
2022-10-01T19:29:45.628Z,1.70
2022-10-01T19:32:35.921Z,1.77
2022-10-01T19:35:40.120Z,1.93
2022-10-01T19:38:29.339Z,1.73
2022-10-01T19:41:29.641Z,1.70
2022-10-01T19:44:56.183Z,1.50
2022-10-01T19:47:46.411Z,1.53
2022-10-01T19:50:27.375Z,1.40
2022-10-01T19:52:58.528Z,1.70
2022-10-01T19:55:29.917Z,1.40
2022-10-01T19:57:57.126Z,1.77
2022-10-01T20:00:24.831Z,1.50
2022-10-01T20:03:17.630Z,1.43
2022-10-01T20:05:53.442Z,1.40
2022-10-01T20:08:35.492Z,1.53
2022-10-01T20:11:21.685Z,1.70
2022-10-01T20:14:33.365Z,1.90
2022-10-01T20:17:12.388Z,1.60
2022-10-01T20:19:53.112Z,1.50
2022-10-01T20:22:42.935Z,1.87
2022-10-01T20:25:23.886Z,1.70
2022-10-01T20:28:24.004Z,1.80
2022-10-01T20:31:22.454Z,1.70
2022-10-01T20:34:11.988Z,1.60
2022-10-01T20:37:23.606Z,1.57
2022-10-01T20:40:22.822Z,1.70
2022-10-01T20:43:16.858Z,1.70
2022-10-01T20:45:50.428Z,1.60
2022-10-01T20:48:25.447Z,1.67
2022-10-01T20:51:00.348Z,1.90
2022-10-01T20:53:39.155Z,1.83
2022-10-01T20:56:39.969Z,1.90
2022-10-01T20:59:19.135Z,1.60
2022-10-01T21:02:01.920Z,1.90
2022-10-01T21:04:40.751Z,1.90
2022-10-01T21:07:38.960Z,1.90
2022-10-01T21:10:43.328Z,1.67
2022-10-01T21:13:31.522Z,1.70
2022-10-01T21:16:38.560Z,1.80
2022-10-01T21:19:47.831Z,2.10
2022-10-01T21:23:04.298Z,2.00
2022-10-01T21:25:40.082Z,2.10
2022-10-01T21:29:11.059Z,1.87
2022-10-01T21:32:19.101Z,1.80
2022-10-01T21:35:33.198Z,1.93
2022-10-01T21:38:04.848Z,1.70
2022-10-01T21:40:40.734Z,1.80
2022-10-01T21:43:26.481Z,1.80
2022-10-01T21:46:05.574Z,1.73
2022-10-01T21:48:47.688Z,1.80
2022-10-01T21:51:47.707Z,1.80
2022-10-01T21:55:07.051Z,1.90
2022-10-01T21:58:10.672Z,1.80
2022-10-01T22:00:38.104Z,1.60
2022-10-01T22:03:14.343Z,1.73
2022-10-01T22:06:09.516Z,1.53
2022-10-01T22:09:13.317Z,1.60
2022-10-01T22:11:51.548Z,1.37
2022-10-01T22:14:31.066Z,1.50
2022-10-01T22:17:12.959Z,1.40
2022-10-01T22:19:49.015Z,1.60
2022-10-01T22:22:35.670Z,1.80
2022-10-01T22:25:04.851Z,1.40
2022-10-01T22:27:57.909Z,1.50
2022-10-01T22:30:32.427Z,1.40
2022-10-01T22:33:27.982Z,1.47
2022-10-01T22:36:15.805Z,1.40
2022-10-01T22:38:52.615Z,1.40
2022-10-01T22:42:01.067Z,1.50
2022-10-01T22:44:29.502Z,1.27
2022-10-01T22:47:17.952Z,1.30
2022-10-01T22:50:17.066Z,1.20
2022-10-01T22:53:19.250Z,1.00
2022-10-01T22:55:57.947Z,1.20
2022-10-01T22:58:47.530Z,1.10
2022-10-01T23:01:26.370Z,1.17
2022-10-01T23:04:35.446Z,1.20
2022-10-01T23:07:23.060Z,1.13
2022-10-01T23:10:20.184Z,1.00
2022-10-01T23:13:34.801Z,1.10
2022-10-01T23:16:17.970Z,1.00
2022-10-01T23:19:19.513Z,1.00
2022-10-01T23:21:55.693Z,0.87
2022-10-01T23:24:33.837Z,1.20
2022-10-01T23:27:34.561Z,1.03
2022-10-01T23:30:08.602Z,1.10
2022-10-01T23:32:53.673Z,0.90
2022-10-01T23:35:54.913Z,0.80
2022-10-01T23:38:37.208Z,0.90
2022-10-01T23:41:27.556Z,0.97
2022-10-01T23:44:12.900Z,0.80
2022-10-01T23:46:46.090Z,1.00
2022-10-01T23:49:16.759Z,1.00
2022-10-01T23:52:10.372Z,1.00
2022-10-01T23:54:51.759Z,0.90
2022-10-01T23:57:29.627Z,0.80
